• Join FlightAware (Why Join?)
  • Login
  • US Flag 
12:12AM EST


 

Airport Tracker/Info


-or-


 

Live Flight TrackerFlight Track Log ✈ UAL495 ✈ 19-Apr-2013 ✈ KDEN - KIAD

Flight Track Log - Related Links

Times and Time Zones

All times are in EDT time to prevent confusion due to time zone crossing. See the UAL495 flight status page for this flight to view local times or setup timezone preferences in your user account.

Time Position Orientation Groundspeed Altitude Reporting Facility
EDT Latitude Longitude Course Direction KTS MPH feet Rate Location/Type
12:42PM 39.9333 -104.6667 96° East 226 260 7,100  Level Denver TRACON
12:42PM 39.9233 -104.5944 100° East 280 322 8,600 1,500 Climbing Denver Center
12:43PM 39.8608 -104.5150 136° Southeast 316 364 9,900 900 Climbing Denver Center
12:44PM 39.7935 -104.1659 101° East  Level FlightAware Approximate
12:45PM 39.7667 -104.0010 90° East  Level FlightAware Approximate
12:45PM 39.8269 -104.3858 109° East 375 432 10,500  Level Denver Center
12:46PM 39.7521 -103.8336 99° East  Level FlightAware Approximate
12:46PM 39.8111 -104.2308 98° East 398 458 13,100  Level Denver Center
12:47PM 39.7322 -103.6684 96° East  Level FlightAware Approximate
12:47PM 39.7872 -104.0792 102° East 425 489 15,400  Level Denver Center
12:48PM 39.7650 -103.9072 99° East 452 520 17,300 1,800 Climbing Denver Center
12:49PM 39.7403 -103.7350 101° East 462 532 19,200 1,800 Climbing Denver Center
12:50PM 39.7281 -103.5647 95° East 469 540 21,100 1,740 Climbing Denver Center
12:51PM 39.7150 -103.3858 95° East 490 564 22,800 1,560 Climbing Denver Center
12:52PM 39.7056 -103.2042 94° East 498 573 24,400 1,440 Climbing Denver Center
12:53PM 39.6992 -103.0194 93° East 506 582 25,800 1,260 Climbing Denver Center
12:54PM 39.6889 -102.8289 94° East 516 594 27,100 1,320 Climbing Denver Center
12:55PM 39.6797 -102.6278 93° East 525 604 28,600 1,500 Climbing Denver Center
12:56PM 39.6692 -102.4178 94° East 524 603 30,300 1,500 Climbing Denver Center
12:57PM 39.6614 -102.2408 93° East 518 596 31,700 1,260 Climbing Denver Center
12:58PM 39.6511 -102.0364 94° East 510 587 33,000 1,080 Climbing Denver Center
12:59PM 39.6422 -101.8603 94° East 512 589 34,000 960 Climbing Denver Center
01:00PM 39.6308 -101.6600 94° East 500 575 35,000 480 Climbing Denver Center
01:01PM 39.6208 -101.4861 94° East 506 582 35,000  Level Denver Center
01:02PM 39.6083 -101.2828 94° East 509 586 35,000  Level Denver Center
01:03PM 39.5975 -101.1061 94° East 513 590 35,000  Level Denver Center
01:04PM 39.5853 -100.9022 94° East 512 589 35,000  Level Denver Center
01:05PM 39.5753 -100.7267 94° East 511 588 35,000  Level Denver Center
01:06PM 39.5636 -100.5503 95° East 513 590 35,000  Level Denver Center
01:07PM 39.5494 -100.3453 95° East 514 592 35,000  Level Denver Center
01:08PM 39.5375 -100.1683 95° East 516 594 35,000  Level Denver Center
01:09PM 39.5231 -99.9625 95° East 518 596 35,000  Level Denver Center
01:10PM 39.5103 -99.7872 95° East 514 592 35,000  Level Denver Center
01:11PM 39.4967 -99.6025 95° East 516 594 35,000  Level Denver Center
01:12PM 39.4800 -99.3822 96° East 512 589 35,000  Level Denver Center
01:13PM 39.4664 -99.1997 95° East 511 588 35,000  Level Denver Center
01:14PM 39.4519 -99.0164 96° East 513 590 35,000  Level Denver Center
01:16PM 39.4372 -98.8331 96° East 512 589 35,000  Level Denver Center
01:17PM 39.4219 -98.6494 96° East 514 592 35,000  Level Denver Center
01:18PM 39.4061 -98.4633 96° East 522 601 35,000  Level Denver Center
01:19PM 39.3883 -98.2414 96° East 519 597 35,000  Level Denver Center
01:19PM 39.3761 -98.1158 97° East 514 592 35,000  Level Kansas City Center
01:20PM 39.3625 -97.9394 96° East 515 593 35,000  Level Kansas City Center
01:21PM 39.3453 -97.7183 96° East 526 605 35,000  Level Kansas City Center
01:22PM 39.3283 -97.5333 97° East 521 600 35,000  Level Kansas City Center
01:24PM 39.3086 -97.3436 98° East 520 598 35,000  Level Kansas City Center
01:25PM 39.2914 -97.1631 97° East 527 606 35,000  Level Kansas City Center
01:26PM 39.2722 -96.9539 97° East 528 608 35,000  Level Kansas City Center
01:27PM 39.2553 -96.7731 97° East 529 609 35,000  Level Kansas City Center
01:28PM 39.2333 -96.5622 98° East 531 611 35,000  Level Kansas City Center
01:29PM 39.2153 -96.3817 97° East 529 609 35,000  Level Kansas City Center
01:30PM 39.1944 -96.1689 97° East 534 615 35,000  Level Kansas City Center
01:31PM 39.1753 -95.9878 98° East 534 615 35,000  Level Kansas City Center
01:32PM 39.1561 -95.8042 98° East 539 620 35,000  Level Kansas City Center
01:33PM 39.1342 -95.5906 97° East 540 621 35,000  Level Kansas City Center
01:34PM 39.1117 -95.3822 98° East 538 619 35,000  Level Kansas City Center
01:35PM 39.0911 -95.1967 98° East 529 609 35,000  Level Kansas City Center
01:36PM 39.0678 -95.0011 99° East 530 610 35,000  Level Kansas City Center
01:37PM 39.0469 -94.8206 98° East 534 615 35,000  Level Kansas City Center
01:38PM 39.0217 -94.6089 99° East 536 617 35,000  Level Kansas City Center
01:39PM 38.9997 -94.4278 99° East 536 617 35,000  Level Kansas City Center
01:40PM 38.9717 -94.2139 100° East 544 626 35,000  Level Kansas City Center
01:41PM 38.9500 -94.0303 99° East 543 625 35,000  Level Kansas City Center
01:42PM 38.9236 -93.8144 99° East 547 629 35,000  Level Kansas City Center
01:43PM 38.9006 -93.6203 99° East 549 632 35,000  Level Kansas City Center
01:44PM 38.8758 -93.4300 99° East 543 625 35,000  Level Kansas City Center
01:45PM 38.8522 -93.2444 99° East 533 613 35,000  Level Kansas City Center
01:46PM 38.8278 -93.0592 100° East 527 606 35,000  Level Kansas City Center
01:47PM 38.8025 -92.8733 100° East 525 604 35,000  Level Kansas City Center
01:48PM 38.7772 -92.6856 100° East 528 608 35,000  Level Kansas City Center
01:49PM 38.7461 -92.4600 100° East 530 610 35,000  Level Kansas City Center
01:50PM 38.7203 -92.2678 100° East 537 618 35,000  Level Kansas City Center
01:51PM 38.6944 -92.0806 100° East 534 615 35,000  Level Kansas City Center
01:52PM 38.6833 -91.8864 94° East 541 623 35,000  Level Kansas City Center
01:53PM 38.6783 -91.6872 92° East 549 632 35,000  Level Kansas City Center
01:55PM 38.6708 -91.4853 93° East 557 641 35,000  Level Kansas City Center
01:56PM 38.6631 -91.2942 93° East 558 642 35,000  Level Kansas City Center
01:57PM 38.6569 -91.0994 92° East 553 636 35,000  Level Kansas City Center
01:58PM 38.6475 -90.8639 93° East 555 639 35,000  Level Kansas City Center
01:59PM 38.6386 -90.6575 93° East 550 633 35,000  Level Kansas City Center
02:00PM 38.6286 -90.4619 94° East 548 631 35,000  Level Kansas City Center
02:01PM 38.6233 -90.2575 92° East 551 634 35,000  Level Kansas City Center
02:02PM 38.6136 -90.0625 94° East 554 638 35,000  Level Kansas City Center
02:03PM 38.6036 -89.8669 94° East 550 633 35,000  Level Kansas City Center
02:04PM 38.5936 -89.6733 94° East 546 628 35,000  Level Kansas City Center
02:05PM 38.5853 -89.4747 93° East 555 639 35,000  Level Kansas City Center
02:06PM 38.5747 -89.2792 94° East 556 640 35,000  Level Kansas City Center
02:07PM 38.5625 -89.0453 94° East 553 636 35,000  Level Kansas City Center
02:08PM 38.5514 -88.8536 94° East 547 629 35,000  Level Kansas City Center
02:09PM 38.5400 -88.6611 94° East 547 629 35,000  Level Kansas City Center
02:10PM 38.5289 -88.4636 94° East 541 623 35,000  Level Kansas City Center
02:11PM 38.5172 -88.2722 94° East 540 621 35,000  Level Kansas City Center
02:12PM 38.5050 -88.0825 95° East 538 619 35,000  Level Kansas City Center
02:13PM 38.4800 -87.8997 100° East 525 604 35,000  Level Kansas City Center
02:14PM 38.4608 -87.7536 99° East 525 604 35,000  Level Indianapolis Center
02:15PM 38.4383 -87.5681 99° East 526 605 35,000 60 Level Indianapolis Center
02:16PM 38.4122 -87.3428 98° East 532 612 35,200 240 Climbing Indianapolis Center
02:17PM 38.3908 -87.1597 98° East 532 612 35,600 480 Climbing Indianapolis Center
02:18PM 38.3711 -86.9719 98° East 536 617 36,200 480 Climbing Indianapolis Center
02:19PM 38.3694 -86.7931 91° East 552 635 36,600 360 Climbing Indianapolis Center
02:20PM 38.3731 -86.5947 89° East 557 641 37,000 180 Climbing Indianapolis Center
02:21PM 38.3744 -86.3583 89° East 550 633 37,000  Level Indianapolis Center
02:22PM 38.3775 -86.1603 89° East 553 636 37,000  Level Indianapolis Center
02:23PM 38.3800 -85.9631 89° East 556 640 37,000  Level Indianapolis Center
02:24PM 38.3833 -85.7675 89° East 552 635 37,000  Level Indianapolis Center
02:25PM 38.3853 -85.5708 89° East 552 635 37,000  Level Indianapolis Center
02:26PM 38.3872 -85.3753 89° East 550 633 37,000  Level Indianapolis Center
02:27PM 38.3878 -85.1717 90° East 553 636 37,000  Level Indianapolis Center
02:28PM 38.3872 -84.9753 90° East 556 640 37,000  Level Indianapolis Center
02:29PM 38.3889 -84.7789 89° East 556 640 37,000  Level Indianapolis Center
02:30PM 38.3875 -84.5522 90° East 551 634 37,000  Level Indianapolis Center
02:31PM 38.3872 -84.3561 90° East 551 634 37,000  Level Indianapolis Center
02:32PM 38.3864 -84.1631 90° East 546 628 37,000  Level Indianapolis Center
02:33PM 38.3853 -83.9708 90° East 541 623 37,000  Level Indianapolis Center
02:34PM 38.3828 -83.7808 91° East 536 617 37,000  Level Indianapolis Center
02:35PM 38.3819 -83.5906 90° East 535 616 37,000  Level Indianapolis Center
02:37PM 38.3803 -83.3697 90° East 534 615 37,000  Level Indianapolis Center
02:38PM 38.3778 -83.1819 91° East 529 609 37,000  Level Indianapolis Center
02:39PM 38.3750 -82.9947 91° East 527 606 37,000  Level Indianapolis Center
02:40PM 38.3722 -82.8078 91° East 527 606 37,000 -360 Level Indianapolis Center
02:41PM 38.3678 -82.6208 92° East 527 606 36,300 -780 Descending Indianapolis Center
02:42PM 38.3642 -82.4206 91° East 531 611 35,400 -660 Descending Indianapolis Center
02:43PM 38.3606 -82.2353 91° East 526 605 35,000 -540 Descending Indianapolis Center
02:44PM 38.3578 -82.0572 91° East 508 585 34,400 -540 Descending Indianapolis Center
02:45PM 38.3522 -81.8792 92° East 506 582 34,000 -480 Descending Indianapolis Center
02:46PM 38.3481 -81.7008 92° East 508 585 33,500 -540 Descending Indianapolis Center
02:47PM 38.3408 -81.4858 92° East 513 590 33,000 -300 Descending Indianapolis Center
02:48PM 38.3347 -81.3039 92° East 518 596 33,000  Level Indianapolis Center
02:49PM 38.3283 -81.1264 93° East 508 585 33,000  Level Indianapolis Center
02:49PM 38.3264 -81.0522 92° East 505 581 33,000  Level Washington Center
02:50PM 38.3175 -80.8769 94° East 505 581 33,000  Level Washington Center
02:51PM 38.3125 -80.7017 92° East 499 574 33,000  Level Washington Center
02:52PM 38.3036 -80.5186 93° East 499 574 33,000 -240 Level Washington Center
02:53PM 38.3233 -80.3372 82° East 513 590 32,600 -780 Descending Washington Center
02:54PM 38.3694 -80.1733 70° East 522 601 31,500 -1,500 Descending Washington Center
02:55PM 38.4075 -79.9903 75° East 522 601 29,600 -1,980 Descending Washington Center
02:56PM 38.4453 -79.8122 75° East 527 606 27,600 -1,980 Descending Washington Center
02:57PM 38.4847 -79.6314 74° East 527 606 25,700 -1,800 Descending Washington Center
02:58PM 38.5247 -79.4344 75° East 522 601 24,000 -1,200 Descending Washington Center
02:59PM 38.5572 -79.2556 77° East 522 601 23,400 -1,800 Descending Washington Center
03:00PM 38.5858 -79.0736 79° East 522 601 20,400 -2,760 Descending Washington Center
03:01PM 38.6136 -78.8969 79° East 516 594 17,900 -2,100 Descending Washington Center
03:02PM 38.6450 -78.7336 76° East 492 566 16,300 -2,040 Descending Washington Center
03:03PM 38.6847 -78.5758 72° East 473 544 13,800 -2,400 Descending Washington Center
03:04PM 38.7197 -78.4200 74° East 456 525 11,500 -1,620 Descending Washington Center
03:05PM 38.7850 -78.2975 56° Northeast 421 484 10,600 -780 Descending Washington Center
03:06PM 38.8781 -78.2422 25° Northeast 372 428 10,000 -840 Descending Washington Center
03:07PM 38.9725 -78.2083 16° North 350 403 9,000 -1,260 Descending Washington Center
03:08PM 39.0547 -78.1603 24° Northeast 339 390 7,500 -1,320 Descending Washington Center
03:09PM 39.1253 -78.0825 41° Northeast 328 377 6,400 -1,200 Descending Washington Center
03:10PM 39.1875 -78.0017 45° Northeast 323 372 5,100 -660 Descending Washington Center
03:11PM 39.2000 -77.8922 82° East 291 335 5,100  Level Washington Center
03:12PM 39.2061 -77.7825 86° East 291 335 5,100 -120 Level Washington Center
03:14PM 39.2333 -77.5833 80° East 275 316 4,900 -420 Descending Potomac TRACON
03:15PM 39.2333 -77.5000 90° East 241 277 4,000 -720 Descending Potomac TRACON
03:16PM 39.1833 -77.4667 153° Southeast 175 201 3,500 -600 Descending Potomac TRACON
03:17PM 39.1500 -77.4500 159° South 155 178 2,900 -480 Descending Potomac TRACON
03:18PM 39.1000 -77.4500 180° South 156 180 2,600 -540 Descending Potomac TRACON
03:19PM 39.0500 -77.4667 195° South 158 182 1,800 -840 Descending Potomac TRACON